Time;durP1;ratioP1;P1;durP2;ratioP2;P2;SDS_P1;SDS_P2;PMS_P1;PMS_P2;Temp;Humidity;BMP_temperature;BMP_pressure;BME280_temperature;BME280_humidity;BME280_pressure;Samples;Min_cycle;Max_cycle;Signal;HPM_P1;HPM_P2
2022/12/06 00:03:03;;;;;;;27.20;18.40;;;21.30;56.50;;;;;;215601;1286;22512;-52
2022/12/06 00:08:10;;;;;;;27.50;18.60;;;21.30;56.50;;;;;;215617;1280;22457;-52
2022/12/06 00:13:15;;;;;;;29.80;20.00;;;21.30;56.50;;;;;;215434;1292;23876;-51
2022/12/06 00:18:18;;;;;;;26.40;19.00;;;21.20;56.60;;;;;;218680;1289;23386;-53
2022/12/06 00:23:24;;;;;;;28.90;18.80;;;21.20;56.40;;;;;;215444;1278;25623;-52
2022/12/06 00:28:36;;;;;;;31.30;19.20;;;21.20;56.60;;;;;;215511;1289;22637;-52
2022/12/06 00:33:43;;;;;;;26.60;17.30;;;21.30;60.70;;;;;;215488;1272;22433;-54
2022/12/06 00:38:48;;;;;;;24.80;17.20;;;21.40;60.10;;;;;;217597;1281;22513;-54
2022/12/06 00:43:53;;;;;;;26.00;18.30;;;21.40;60.10;;;;;;215589;1277;22454;-54
2022/12/06 00:48:59;;;;;;;26.00;17.30;;;21.40;59.90;;;;;;215757;1297;26480;-54
2022/12/06 00:54:04;;;;;;;27.20;16.90;;;21.30;59.50;;;;;;220745;1285;22459;-54
2022/12/06 00:59:09;;;;;;;25.20;17.10;;;21.40;59.10;;;;;;223812;1280;22811;-56
2022/12/06 01:04:13;;;;;;;25.40;17.90;;;21.30;59.00;;;;;;215418;1283;22700;-55
2022/12/06 01:09:16;;;;;;;25.30;17.40;;;21.30;59.00;;;;;;215663;1298;25205;-54
2022/12/06 01:14:20;;;;;;;23.00;16.30;;;21.30;58.80;;;;;;215648;1288;22452;-54
2022/12/06 01:19:27;;;;;;;24.10;15.20;;;21.20;59.30;;;;;;215653;1282;25299;-55
2022/12/06 01:24:31;;;;;;;26.80;17.60;;;21.30;58.90;;;;;;215632;1298;25551;-53
2022/12/06 01:29:35;;;;;;;23.10;15.60;;;21.20;58.80;;;;;;215567;1297;24434;-55
2022/12/06 01:34:43;;;;;;;25.70;16.30;;;21.40;59.00;;;;;;215634;1283;25365;-53
2022/12/06 01:39:47;;;;;;;25.40;15.30;;;21.70;58.20;;;;;;215532;1277;22463;-52
2022/12/06 01:44:53;;;;;;;25.70;16.30;;;21.90;57.60;;;;;;215311;1295;24214;-53
2022/12/06 01:50:01;;;;;;;20.60;14.90;;;22.20;57.10;;;;;;218562;1285;22467;-53
2022/12/06 01:55:09;;;;;;;23.20;15.40;;;22.30;56.90;;;;;;215221;1283;22928;-53
2022/12/06 02:00:13;;;;;;;21.60;15.40;;;22.50;56.40;;;;;;215381;1296;25460;-53
2022/12/06 02:05:18;;;;;;;22.30;15.50;;;22.60;55.60;;;;;;215554;1276;23824;-52
2022/12/06 02:10:22;;;;;;;22.00;15.80;;;22.70;55.50;;;;;;215498;1272;22664;-51
2022/12/06 02:15:54;;;;;;;22.60;15.80;;;22.70;55.60;;;;;;215331;1277;23839;-51
2022/12/06 02:21:04;;;;;;;20.10;14.70;;;22.80;55.10;;;;;;215618;1276;24387;-52
2022/12/06 02:26:38;;;;;;;21.80;15.30;;;22.80;55.00;;;;;;215588;1281;22470;-53
2022/12/06 02:31:58;;;;;;;19.10;13.40;;;22.90;54.90;;;;;;215334;1282;24300;-53
2022/12/06 02:37:16;;;;;;;20.60;15.20;;;22.90;54.90;;;;;;215564;1297;22466;-52
2022/12/06 02:42:31;;;;;;;21.90;14.60;;;23.00;55.00;;;;;;215611;1268;24232;-53
2022/12/06 02:47:43;;;;;;;22.50;15.10;;;23.00;55.00;;;;;;215536;1286;24235;-52
2022/12/06 02:52:59;;;;;;;21.60;14.10;;;23.00;54.80;;;;;;215473;1279;24243;-54
2022/12/06 02:58:18;;;;;;;20.10;14.30;;;23.10;54.70;;;;;;215731;1283;24243;-55
2022/12/06 03:03:45;;;;;;;22.00;13.90;;;23.10;54.70;;;;;;215607;1281;24264;-52
2022/12/06 03:09:03;;;;;;;19.10;13.50;;;23.10;54.50;;;;;;215313;1297;25182;-53
2022/12/06 03:14:16;;;;;;;20.10;14.20;;;23.10;54.60;;;;;;215434;1281;24031;-53
2022/12/06 03:19:23;;;;;;;25.10;15.70;;;23.00;54.80;;;;;;215634;1283;24253;-54
2022/12/06 03:24:31;;;;;;;21.10;15.10;;;22.90;55.10;;;;;;215584;1277;22447;-54
2022/12/06 03:29:40;;;;;;;20.20;14.40;;;22.80;55.50;;;;;;215560;1275;22458;-55
2022/12/06 03:34:48;;;;;;;22.70;14.60;;;22.70;56.10;;;;;;217829;1290;23848;-52
2022/12/06 03:40:10;;;;;;;24.30;14.40;;;22.60;55.80;;;;;;217166;1290;25406;-52
2022/12/06 03:45:15;;;;;;;20.20;14.80;;;22.50;55.80;;;;;;215520;1281;24332;-51
2022/12/06 03:50:37;;;;;;;18.80;13.50;;;22.50;55.80;;;;;;220719;1291;22825;-52
2022/12/06 03:55:41;;;;;;;19.80;14.00;;;22.40;55.80;;;;;;215215;1283;23195;-52
2022/12/06 04:00:45;;;;;;;22.00;14.70;;;22.30;55.80;;;;;;215044;1276;22703;-50
2022/12/06 04:05:49;;;;;;;18.30;13.40;;;22.30;55.90;;;;;;215497;1275;22466;-52
2022/12/06 04:10:55;;;;;;;18.40;12.40;;;22.20;56.30;;;;;;215675;1291;25290;-52
2022/12/06 04:16:01;;;;;;;17.30;13.70;;;22.10;56.20;;;;;;215611;1269;22466;-48
2022/12/06 04:26:31;;;;;;;20.10;14.00;;;22.00;56.60;;;;;;215467;1282;22690;-51
2022/12/06 04:47:49;;;;;;;20.30;13.10;;;21.80;56.50;;;;;;215459;1292;25295;-52
2022/12/06 04:52:52;;;;;;;18.90;12.80;;;21.70;57.10;;;;;;215367;1277;26472;-54
2022/12/06 04:57:56;;;;;;;19.10;13.70;;;21.70;56.60;;;;;;215199;1298;22669;-52
2022/12/06 05:03:07;;;;;;;19.70;13.60;;;21.60;56.60;;;;;;215714;1269;25898;-53
2022/12/06 05:08:23;;;;;;;18.90;13.50;;;21.60;56.70;;;;;;215670;1276;26541;-54
2022/12/06 05:13:28;;;;;;;18.00;12.50;;;21.60;56.70;;;;;;215561;1283;25283;-50
2022/12/06 05:18:34;;;;;;;17.70;12.80;;;21.50;56.70;;;;;;215266;1277;24262;-53
2022/12/06 05:23:39;;;;;;;19.10;14.00;;;21.50;56.70;;;;;;215632;1290;22613;-52
2022/12/06 05:28:44;;;;;;;19.10;13.00;;;21.40;56.90;;;;;;215632;1282;23049;-52
2022/12/06 05:33:49;;;;;;;18.70;13.40;;;21.40;56.80;;;;;;215551;1283;23990;-52
2022/12/06 05:38:55;;;;;;;18.90;13.20;;;21.40;56.90;;;;;;215516;1275;24247;-52
2022/12/06 05:44:00;;;;;;;18.10;12.60;;;21.40;57.00;;;;;;215518;1277;25142;-48
2022/12/06 05:49:06;;;;;;;16.20;11.70;;;21.60;57.30;;;;;;215213;1296;22449;-51
2022/12/06 05:54:10;;;;;;;18.60;12.90;;;21.90;56.50;;;;;;215599;1275;24002;-51
2022/12/06 05:59:14;;;;;;;17.00;11.90;;;22.20;56.00;;;;;;215643;1281;24780;-53
2022/12/06 06:04:18;;;;;;;16.20;11.60;;;22.30;55.40;;;;;;215333;1278;22475;-53
2022/12/06 06:09:26;;;;;;;16.40;11.80;;;22.50;55.20;;;;;;215115;1280;23989;-51
2022/12/06 06:14:31;;;;;;;17.10;12.20;;;22.70;54.60;;;;;;215305;1282;22712;-52
2022/12/06 06:19:42;;;;;;;17.50;12.10;;;22.70;54.40;;;;;;215392;1272;22469;-52
2022/12/06 06:24:58;;;;;;;15.10;11.00;;;22.80;54.60;;;;;;215104;1279;22537;-52
2022/12/06 06:30:48;;;;;;;19.70;11.90;;;22.90;54.50;;;;;;215301;1275;24316;-54
2022/12/06 06:35:59;;;;;;;19.20;11.80;;;22.80;54.70;;;;;;215272;1277;23849;-50
2022/12/06 06:41:12;;;;;;;19.60;12.30;;;22.90;54.70;;;;;;215276;1300;25314;-54
2022/12/06 06:46:31;;;;;;;18.00;12.80;;;22.90;54.80;;;;;;215314;1300;24291;-52
2022/12/06 06:51:49;;;;;;;15.30;11.50;;;22.90;55.00;;;;;;215369;1281;23637;-51
2022/12/06 06:56:55;;;;;;;15.50;11.10;;;23.00;54.80;;;;;;215017;1284;22596;-53
2022/12/06 07:02:00;;;;;;;15.30;11.00;;;23.10;54.80;;;;;;214927;1282;24275;-53
2022/12/06 07:07:04;;;;;;;16.40;11.10;;;23.10;55.00;;;;;;215363;1293;22508;-53
2022/12/06 07:12:09;;;;;;;13.30;9.70;;;23.10;54.80;;;;;;215592;1283;24222;-52
2022/12/06 07:17:12;;;;;;;17.30;10.00;;;23.20;55.20;;;;;;215670;1282;24303;-53
2022/12/06 07:22:18;;;;;;;19.40;10.60;;;23.10;56.10;;;;;;215653;1291;23838;-52
2022/12/06 07:27:22;;;;;;;21.10;10.00;;;23.10;57.70;;;;;;215488;1282;25255;-53
2022/12/06 07:32:26;;;;;;;23.50;10.30;;;23.10;58.00;;;;;;215546;1276;27622;-53
2022/12/06 07:37:30;;;;;;;25.70;10.70;;;23.00;58.10;;;;;;215247;1286;22472;-52
2022/12/06 07:47:58;;;;;;;19.00;9.90;;;22.90;57.30;;;;;;215443;1276;22476;-52
2022/12/06 07:53:02;;;;;;;19.20;10.10;;;22.80;57.20;;;;;;215584;1283;23873;-54
2022/12/06 07:58:07;;;;;;;19.30;9.80;;;22.70;57.10;;;;;;215646;1295;23904;-52
2022/12/06 08:03:11;;;;;;;20.70;9.40;;;22.50;57.10;;;;;;214906;1283;22446;-52
2022/12/06 08:08:14;;;;;;;15.80;9.50;;;22.30;57.40;;;;;;215656;1291;24195;-52
2022/12/06 08:13:18;;;;;;;18.20;9.30;;;22.30;56.60;;;;;;215469;1280;22444;-53
2022/12/06 08:18:24;;;;;;;15.40;9.60;;;22.20;56.30;;;;;;216064;1283;25347;-54
2022/12/06 08:23:28;;;;;;;12.10;8.70;;;22.10;55.90;;;;;;215211;1269;24229;-52
2022/12/06 08:28:38;;;;;;;13.90;9.30;;;22.10;56.40;;;;;;215458;1277;25337;-54
2022/12/06 08:33:42;;;;;;;17.90;9.30;;;22.00;55.90;;;;;;215521;1269;25654;-54
2022/12/06 08:38:49;;;;;;;13.90;7.90;;;22.00;55.70;;;;;;215849;1277;22682;-53
2022/12/06 08:43:56;;;;;;;13.40;8.80;;;22.00;55.70;;;;;;215459;1283;22717;-52
2022/12/06 08:49:00;;;;;;;13.80;8.20;;;21.90;55.60;;;;;;215285;1271;23011;-53
2022/12/06 08:54:07;;;;;;;12.70;8.20;;;21.80;56.10;;;;;;215221;1277;26132;-49
2022/12/06 08:59:10;;;;;;;14.50;7.80;;;21.70;56.20;;;;;;215542;1283;24246;-59
2022/12/06 09:04:14;;;;;;;17.80;8.60;;;21.70;56.30;;;;;;215611;1294;23867;-53
2022/12/06 09:09:19;;;;;;;11.60;8.00;;;21.60;56.20;;;;;;215134;1285;23989;-55
2022/12/06 09:14:23;;;;;;;16.80;7.30;;;21.60;55.80;;;;;;215452;1278;25447;-54
2022/12/06 09:19:28;;;;;;;12.90;7.50;;;21.50;56.30;;;;;;215622;1276;22621;-52
2022/12/06 09:24:32;;;;;;;19.00;7.60;;;21.50;56.40;;;;;;215371;1275;24820;-54
2022/12/06 09:29:36;;;;;;;11.00;6.60;;;21.40;56.40;;;;;;215590;1277;25370;-55
2022/12/06 09:34:43;;;;;;;12.40;6.80;;;21.40;56.40;;;;;;215522;1281;24234;-54
2022/12/06 09:39:52;;;;;;;12.70;6.90;;;21.30;56.20;;;;;;215476;1277;24316;-52
2022/12/06 09:45:27;;;;;;;12.60;6.90;;;21.30;56.10;;;;;;215040;1277;22446;-52
2022/12/06 09:50:52;;;;;;;10.30;6.80;;;21.20;56.20;;;;;;215307;1275;25414;-53
2022/12/06 09:56:02;;;;;;;8.90;5.70;;;21.50;55.70;;;;;;215218;1282;25326;-54
2022/12/06 10:01:15;;;;;;;9.30;5.20;;;21.80;54.50;;;;;;214991;1276;22452;-51
2022/12/06 10:06:22;;;;;;;9.40;5.60;;;22.00;53.80;;;;;;215471;1291;26442;-53
2022/12/06 10:11:45;;;;;;;7.40;4.80;;;22.20;53.20;;;;;;215080;1292;22555;-51
2022/12/06 10:17:01;;;;;;;9.30;5.60;;;22.30;52.80;;;;;;215075;1275;25359;-52
2022/12/06 10:22:20;;;;;;;9.50;5.70;;;22.40;52.50;;;;;;214968;1286;22715;-54
2022/12/06 10:27:37;;;;;;;6.70;5.40;;;22.50;52.90;;;;;;215028;1284;22471;-53
2022/12/06 10:33:04;;;;;;;7.90;4.80;;;22.60;52.40;;;;;;215322;1284;22512;-53
2022/12/06 10:38:23;;;;;;;9.40;5.30;;;22.60;51.90;;;;;;215045;1285;23892;-55
2022/12/06 10:43:33;;;;;;;7.80;5.40;;;22.70;51.70;;;;;;215301;1276;22701;-54
2022/12/06 10:48:46;;;;;;;7.30;5.20;;;22.70;51.60;;;;;;215100;1300;26036;-54
2022/12/06 10:54:00;;;;;;;6.60;4.90;;;22.70;51.40;;;;;;214905;1275;22658;-52
2022/12/06 10:59:10;;;;;;;7.70;4.90;;;22.80;51.50;;;;;;215099;1279;22620;-52
2022/12/06 11:04:42;;;;;;;7.40;5.30;;;22.90;51.20;;;;;;215283;1278;25515;-53
2022/12/06 11:09:52;;;;;;;7.30;5.00;;;22.90;51.00;;;;;;215208;1276;24614;-55
2022/12/06 11:15:03;;;;;;;;;;;22.90;50.60;;;;;;215508;1269;24358;-56
2022/12/06 11:20:27;;;;;;;6.80;5.20;;;23.00;50.60;;;;;;215446;1283;22458;-54
2022/12/06 11:25:50;;;;;;;8.40;5.30;;;22.80;51.10;;;;;;215490;1288;22466;-55
2022/12/06 11:30:56;;;;;;;6.70;5.00;;;22.90;52.00;;;;;;215278;1279;24275;-54
2022/12/06 11:36:04;;;;;;;6.90;4.70;;;22.90;51.20;;;;;;215504;1288;22535;-54
2022/12/06 11:41:15;;;;;;;6.50;4.50;;;23.00;51.50;;;;;;215613;1276;26673;-54
2022/12/06 11:46:33;;;;;;;7.10;4.50;;;22.90;51.30;;;;;;215345;1276;22591;-53
2022/12/06 11:52:43;;;;;;;8.50;4.30;;;23.00;51.20;;;;;;223634;1281;21964;-54
2022/12/06 11:58:58;;;;;;;6.20;4.10;;;23.10;50.80;;;;;;218754;1282;23991;-52
2022/12/06 12:04:41;;;;;;;6.40;4.50;;;23.20;50.30;;;;;;214999;1283;25099;-54
2022/12/06 12:10:41;;;;;;;5.30;4.30;;;23.10;50.40;;;;;;215206;1276;22722;-55
2022/12/06 12:16:25;;;;;;;6.00;4.00;;;23.00;51.00;;;;;;215003;1281;25496;-55
2022/12/06 12:22:18;;;;;;;5.90;4.20;;;22.90;51.40;;;;;;214795;1286;23843;-54
2022/12/06 12:27:58;;;;;;;6.20;4.10;;;22.80;51.80;;;;;;215050;1285;22483;-55
2022/12/06 12:33:36;;;;;;;6.60;3.90;;;22.70;51.40;;;;;;215292;1275;22579;-57
2022/12/06 12:39:28;;;;;;;5.60;4.10;;;22.70;52.00;;;;;;214890;1285;22458;-57
2022/12/06 12:45:09;;;;;;;6.10;4.20;;;22.60;52.00;;;;;;214961;1269;25417;-56
2022/12/06 12:50:59;;;;;;;7.10;4.30;;;22.60;52.90;;;;;;215003;1283;25502;-56
2022/12/06 12:56:43;;;;;;;5.60;3.80;;;22.50;53.20;;;;;;223262;1281;22127;-56
2022/12/06 13:02:36;;;;;;;8.70;4.00;;;22.40;53.40;;;;;;223118;1282;22112;-57
2022/12/06 13:08:21;;;;;;;6.70;4.30;;;22.50;53.70;;;;;;215313;1283;25001;-56
2022/12/06 13:14:24;;;;;;;6.60;4.20;;;22.50;54.00;;;;;;215198;1275;22464;-55
2022/12/06 13:20:27;;;;;;;7.40;4.00;;;22.40;54.60;;;;;;215259;1269;24209;-57
2022/12/06 13:26:28;;;;;;;7.10;4.40;;;22.30;54.90;;;;;;219633;1275;24241;-58
2022/12/06 13:31:38;;;;;;;6.00;4.30;;;22.30;55.40;;;;;;215919;1289;24265;-60
2022/12/06 13:36:43;;;;;;;8.50;4.60;;;22.20;55.40;;;;;;216486;1290;22570;-52
2022/12/06 13:47:27;;;;;;;7.70;4.70;;;22.30;56.10;;;;;;215481;1276;25127;-54
2022/12/06 13:52:43;;;;;;;7.90;4.80;;;22.30;55.80;;;;;;215180;1276;24229;-56
2022/12/06 13:57:47;;;;;;;6.90;4.00;;;22.30;55.40;;;;;;215567;1272;22444;-56
2022/12/06 14:02:55;;;;;;;5.70;3.90;;;22.20;55.60;;;;;;215139;1283;25394;-55
2022/12/06 14:07:59;;;;;;;6.70;3.80;;;22.20;56.50;;;;;;215566;1283;24173;-55
2022/12/06 14:13:04;;;;;;;8.40;3.70;;;22.10;55.50;;;;;;215595;1277;23843;-57
2022/12/06 14:18:17;;;;;;;9.40;3.70;;;22.50;55.10;;;;;;215189;1275;24243;-56
2022/12/06 14:23:30;;;;;;;6.70;4.20;;;22.50;54.50;;;;;;215525;1269;24341;-57
2022/12/06 14:28:36;;;;;;;10.40;3.60;;;22.20;55.10;;;;;;215482;1283;23854;-59
2022/12/06 14:33:40;;;;;;;10.00;5.50;;;22.10;55.60;;;;;;215542;1283;24224;-58
2022/12/06 14:38:51;;;;;;;7.20;4.90;;;22.00;61.30;;;;;;215844;1283;23894;-55
2022/12/06 14:43:54;;;;;;;9.00;5.00;;;22.00;57.80;;;;;;215616;1277;24420;-58
2022/12/06 14:54:28;;;;;;;8.80;5.10;;;21.90;59.20;;;;;;215423;1283;24119;-57
2022/12/06 14:59:34;;;;;;;8.10;5.10;;;21.80;58.50;;;;;;215309;1283;23880;-57
2022/12/06 15:04:59;;;;;;;12.40;5.60;;;21.80;58.00;;;;;;215867;1272;24365;-55
2022/12/06 15:10:28;;;;;;;14.40;5.40;;;21.70;58.00;;;;;;222718;1293;22488;-55
2022/12/06 15:15:46;;;;;;;7.40;4.10;;;21.70;59.60;;;;;;215563;1283;25467;-56
2022/12/06 15:20:54;;;;;;;10.30;5.10;;;21.70;59.80;;;;;;215394;1291;23843;-57
2022/12/06 15:25:58;;;;;;;10.80;5.10;;;21.70;58.80;;;;;;215365;1283;22669;-58
2022/12/06 15:31:12;;;;;;;8.60;4.90;;;21.60;58.70;;;;;;215399;1282;22654;-57
2022/12/06 15:36:22;;;;;;;11.30;5.10;;;21.60;58.50;;;;;;215358;1283;22459;-56
2022/12/06 15:41:28;;;;;;;9.70;4.80;;;21.50;58.90;;;;;;215347;1282;24326;-58
2022/12/06 15:46:40;;;;;;;12.50;4.70;;;21.50;59.00;;;;;;215050;1275;22454;-56
2022/12/06 15:51:48;;;;;;;15.70;5.00;;;21.40;58.60;;;;;;215326;1277;23152;-55
2022/12/06 15:56:55;;;;;;;19.30;5.00;;;21.40;58.50;;;;;;215427;1277;24285;-58
2022/12/06 16:02:00;;;;;;;10.60;4.50;;;21.30;58.10;;;;;;215438;1276;24451;-54
2022/12/06 16:07:10;;;;;;;10.90;4.50;;;21.30;58.50;;;;;;215225;1279;22456;-56
2022/12/06 16:12:14;;;;;;;9.80;3.80;;;21.30;57.40;;;;;;214988;1269;26625;-54
2022/12/06 16:17:23;;;;;;;16.30;4.80;;;21.40;57.90;;;;;;214979;1269;22575;-55
2022/12/06 16:27:56;;;;;;;10.90;3.90;;;21.30;56.90;;;;;;215192;1282;23906;-57
2022/12/06 16:33:01;;;;;;;7.10;3.80;;;21.20;56.30;;;;;;215126;1272;25402;-57
2022/12/06 16:38:17;;;;;;;7.20;3.40;;;21.20;56.20;;;;;;215170;1280;24241;-58
2022/12/06 16:43:21;;;;;;;6.90;3.80;;;21.20;56.10;;;;;;215170;1269;22492;-58
2022/12/06 16:48:28;;;;;;;10.20;3.40;;;21.20;56.40;;;;;;215393;1275;23051;-57
2022/12/06 16:53:32;;;;;;;7.20;3.70;;;21.10;56.00;;;;;;214993;1283;22467;-57
2022/12/06 16:58:37;;;;;;;10.70;3.70;;;21.10;55.90;;;;;;215189;1283;23734;-58
2022/12/06 17:03:48;;;;;;;12.30;4.00;;;21.10;57.60;;;;;;214893;1280;23945;-59
2022/12/06 17:08:54;;;;;;;8.40;3.40;;;21.10;57.50;;;;;;215468;1276;22472;-58
2022/12/06 17:13:59;;;;;;;12.90;4.10;;;21.10;57.80;;;;;;215223;1275;24391;-57
2022/12/06 17:19:07;;;;;;;11.70;3.90;;;21.10;57.90;;;;;;215190;1285;22468;-59
2022/12/06 17:24:15;;;;;;;9.70;4.40;;;21.00;58.70;;;;;;215101;1275;23833;-59
2022/12/06 17:29:22;;;;;;;7.20;3.70;;;21.10;58.70;;;;;;215107;1282;22598;-58
2022/12/06 17:34:29;;;;;;;9.80;3.40;;;21.10;59.00;;;;;;215339;1287;24413;-60
2022/12/06 17:39:34;;;;;;;13.90;4.40;;;21.20;59.10;;;;;;215334;1283;23711;-60
2022/12/06 17:44:38;;;;;;;9.20;4.10;;;21.20;58.70;;;;;;215368;1288;22489;-57
2022/12/06 17:49:50;;;;;;;11.70;3.90;;;21.20;59.70;;;;;;215146;1281;22600;-58
2022/12/06 17:54:55;;;;;;;12.80;4.50;;;21.20;59.80;;;;;;215261;1281;22461;-57
2022/12/06 18:00:01;;;;;;;18.30;5.10;;;21.30;60.10;;;;;;215132;1283;22650;-59
2022/12/06 18:05:09;;;;;;;14.50;4.40;;;21.30;60.20;;;;;;215129;1276;25940;-56
2022/12/06 18:10:14;;;;;;;13.90;4.80;;;21.30;60.30;;;;;;214897;1283;22474;-59
2022/12/06 18:15:36;;;;;;;9.40;5.30;;;21.30;60.30;;;;;;215255;1283;24005;-59
2022/12/06 18:20:44;;;;;;;11.70;5.20;;;21.40;61.20;;;;;;215585;1286;22546;-57
2022/12/06 18:26:04;;;;;;;14.10;5.70;;;21.50;61.80;;;;;;215441;1296;22465;-56
2022/12/06 18:31:17;;;;;;;9.20;4.90;;;21.40;61.00;;;;;;215460;1291;23741;-59
2022/12/06 18:36:33;;;;;;;12.30;5.50;;;21.50;60.40;;;;;;215540;1280;22448;-58
2022/12/06 18:41:41;;;;;;;12.40;5.00;;;21.70;60.60;;;;;;215547;1284;25363;-59
2022/12/06 18:47:11;;;;;;;18.60;6.40;;;21.70;59.50;;;;;;215295;1285;24240;-58
2022/12/06 18:53:00;;;;;;;94.20;33.30;;;21.80;59.30;;;;;;215501;1283;22487;-59
2022/12/06 18:58:10;;;;;;;73.00;27.50;;;21.80;58.90;;;;;;215493;1298;22798;-57
2022/12/06 19:03:24;;;;;;;61.80;24.70;;;21.60;59.40;;;;;;215586;1280;22492;-56
2022/12/06 19:08:51;;;;;;;54.70;22.50;;;21.70;58.70;;;;;;215355;1279;26487;-58
2022/12/06 19:14:19;;;;;;;50.40;19.60;;;21.70;58.30;;;;;;215615;1280;22457;-57
2022/12/06 19:20:06;;;;;;;49.30;18.40;;;21.60;58.10;;;;;;215233;1279;24004;-57
2022/12/06 19:25:24;;;;;;;33.80;15.50;;;21.60;58.00;;;;;;215599;1280;22482;-58
2022/12/06 19:30:40;;;;;;;45.20;15.20;;;21.50;57.80;;;;;;215518;1278;22808;-56
2022/12/06 19:36:01;;;;;;;35.40;13.80;;;21.40;57.70;;;;;;215461;1272;24395;-57
2022/12/06 19:41:25;;;;;;;30.00;13.50;;;21.30;57.60;;;;;;215416;1280;22461;-57
2022/12/06 19:46:48;;;;;;;36.20;13.80;;;21.30;58.10;;;;;;215604;1279;24247;-57
2022/12/06 19:51:55;;;;;;;32.00;12.80;;;21.30;57.50;;;;;;215578;1280;25303;-59
2022/12/06 19:57:03;;;;;;;29.50;11.60;;;21.30;57.30;;;;;;215606;1281;25537;-59
2022/12/06 20:02:18;;;;;;;23.40;11.00;;;21.30;57.20;;;;;;215512;1285;22460;-58
2022/12/06 20:07:39;;;;;;;24.90;10.00;;;21.30;56.80;;;;;;215468;1275;24247;-58
2022/12/06 20:12:48;;;;;;;20.80;9.50;;;21.40;56.10;;;;;;215354;1294;25647;-59
2022/12/06 20:18:20;;;;;;;22.50;9.10;;;21.50;54.50;;;;;;215717;1296;22484;-58
2022/12/06 20:23:43;;;;;;;17.50;8.90;;;21.30;54.50;;;;;;215590;1287;26720;-58
2022/12/06 20:28:50;;;;;;;18.40;8.60;;;21.40;54.50;;;;;;215594;1283;24331;-60
2022/12/06 20:34:11;;;;;;;16.30;8.20;;;21.30;54.40;;;;;;215692;1285;22711;-57
2022/12/06 20:40:05;;;;;;;16.80;8.10;;;21.20;54.40;;;;;;215770;1273;23918;-54
2022/12/06 20:45:10;;;;;;;20.00;7.80;;;21.20;54.90;;;;;;215681;1274;22474;-55
2022/12/06 20:50:15;;;;;;;19.80;8.60;;;21.10;55.90;;;;;;215630;1290;22478;-59
2022/12/06 20:55:22;;;;;;;16.40;7.40;;;21.10;55.80;;;;;;215674;1283;22678;-61
2022/12/06 21:00:26;;;;;;;22.50;7.20;;;21.00;56.10;;;;;;215710;1272;23001;-62
2022/12/06 21:05:30;;;;;;;17.80;7.70;;;21.00;56.40;;;;;;215652;1283;25046;-62
2022/12/06 21:10:52;;;;;;;15.30;6.70;;;21.00;58.10;;;;;;215859;1280;25204;-62
2022/12/06 21:16:19;;;;;;;16.30;6.90;;;21.00;58.50;;;;;;215748;1279;24007;-60
2022/12/06 21:21:33;;;;;;;14.00;7.20;;;20.90;59.50;;;;;;215742;1274;26590;-62
2022/12/06 21:27:01;;;;;;;16.70;7.60;;;21.00;60.00;;;;;;215593;1279;24315;-62
2022/12/06 21:32:19;;;;;;;14.70;6.50;;;21.30;58.50;;;;;;215615;1286;22977;-60
2022/12/06 21:37:48;;;;;;;14.80;6.70;;;21.70;57.20;;;;;;215633;1282;22686;-62
2022/12/06 21:42:54;;;;;;;11.00;6.30;;;21.90;56.00;;;;;;215723;1283;25301;-63
2022/12/06 21:48:02;;;;;;;11.00;6.00;;;22.10;55.90;;;;;;215723;1274;24042;-59
2022/12/06 21:53:06;;;;;;;15.20;6.30;;;22.20;55.80;;;;;;215562;1279;25525;-57
2022/12/06 21:58:10;;;;;;;13.00;6.10;;;22.20;55.40;;;;;;215657;1272;22840;-59
2022/12/06 22:03:15;;;;;;;13.20;6.50;;;22.10;55.80;;;;;;215394;1282;22464;-59
2022/12/06 22:08:25;;;;;;;17.50;5.90;;;22.20;56.50;;;;;;215597;1283;22488;-60
2022/12/06 22:13:31;;;;;;;15.30;6.50;;;22.40;56.60;;;;;;215238;1274;22524;-60
2022/12/06 22:18:37;;;;;;;10.60;5.90;;;22.50;56.10;;;;;;215449;1282;25399;-60
2022/12/06 22:23:48;;;;;;;12.70;6.00;;;22.60;55.80;;;;;;215414;1283;153184;-59
2022/12/06 22:28:54;;;;;;;13.20;6.00;;;22.70;55.50;;;;;;215592;1289;24047;-60
2022/12/06 22:33:59;;;;;;;10.70;5.50;;;22.80;55.40;;;;;;215320;1273;22826;-58
2022/12/06 22:39:05;;;;;;;13.20;6.40;;;22.90;55.40;;;;;;215578;1283;24063;-59
2022/12/06 22:44:20;;;;;;;11.20;5.50;;;22.90;55.10;;;;;;215370;1274;22475;-60
2022/12/06 22:49:30;;;;;;;10.30;5.20;;;22.90;54.80;;;;;;215433;1273;22466;-60
2022/12/06 22:54:39;;;;;;;12.20;5.00;;;23.00;55.00;;;;;;215520;1274;23831;-59
2022/12/06 22:59:43;;;;;;;11.80;5.30;;;23.00;54.90;;;;;;215523;1281;23895;-59
2022/12/06 23:04:47;;;;;;;12.70;5.60;;;23.10;54.60;;;;;;215278;1279;25337;-60
2022/12/06 23:09:51;;;;;;;11.30;6.30;;;23.00;54.50;;;;;;215130;1278;23875;-59
2022/12/06 23:14:54;;;;;;;12.00;5.20;;;23.00;54.80;;;;;;215524;1282;25457;-61
2022/12/06 23:19:58;;;;;;;10.40;5.30;;;22.90;55.10;;;;;;215662;1297;24113;-59
2022/12/06 23:25:05;;;;;;;12.40;5.50;;;22.70;55.50;;;;;;215430;1273;26034;-59
2022/12/06 23:30:09;;;;;;;11.70;5.00;;;22.70;56.70;;;;;;215660;1283;22593;-60
2022/12/06 23:35:14;;;;;;;10.70;4.70;;;22.60;57.90;;;;;;215623;1275;24244;-60
2022/12/06 23:40:18;;;;;;;12.70;5.10;;;22.50;57.00;;;;;;215643;1283;23854;-60
2022/12/06 23:45:23;;;;;;;10.80;4.80;;;22.40;57.00;;;;;;215454;1283;25446;-60
2022/12/06 23:50:29;;;;;;;8.60;4.60;;;22.30;57.20;;;;;;215583;1279;24221;-60
2022/12/06 23:55:34;;;;;;;8.90;4.60;;;22.20;57.30;;;;;;215623;1279;25531;-60
